createdAt,value
2022-08-19T00:01:30.796Z,18.94
2022-08-19T00:04:03.326Z,18.93
2022-08-19T00:06:31.441Z,18.99
2022-08-19T00:09:01.073Z,19.03
2022-08-19T00:11:28.587Z,19.16
2022-08-19T00:13:57.499Z,19.23
2022-08-19T00:16:26.366Z,19.16
2022-08-19T00:18:54.519Z,18.71
2022-08-19T00:21:21.077Z,18.85
2022-08-19T00:23:48.202Z,19.04
2022-08-19T00:26:15.538Z,19.16
2022-08-19T00:28:42.309Z,19.17
2022-08-19T00:31:10.171Z,19.15
2022-08-19T00:33:36.841Z,19.19
2022-08-19T00:36:07.203Z,19.14
2022-08-19T00:38:38.097Z,19.24
2022-08-19T00:41:08.578Z,19.32
2022-08-19T00:43:35.875Z,19.28
2022-08-19T00:46:05.804Z,19.23
2022-08-19T00:48:34.476Z,19.05
2022-08-19T00:51:02.176Z,18.83
2022-08-19T00:53:32.153Z,19.03
2022-08-19T00:56:02.025Z,19.21
2022-08-19T00:58:33.567Z,19.26
2022-08-19T01:01:02.470Z,19.11
2022-08-19T01:03:29.897Z,19.04
2022-08-19T01:06:19.927Z,19.10
2022-08-19T01:08:47.543Z,18.92
2022-08-19T01:11:17.019Z,19.12
2022-08-19T01:13:49.353Z,19.24
2022-08-19T01:16:18.733Z,19.08
2022-08-19T01:18:46.149Z,19.15
2022-08-19T01:21:33.799Z,19.23
2022-08-19T01:24:00.373Z,19.20
2022-08-19T01:26:27.906Z,19.27
2022-08-19T01:28:57.393Z,19.27
2022-08-19T01:31:32.596Z,18.93
2022-08-19T01:34:00.325Z,19.08
2022-08-19T01:36:37.269Z,19.27
2022-08-19T01:39:07.577Z,19.15
2022-08-19T01:41:34.888Z,19.25
2022-08-19T01:44:17.870Z,19.18
2022-08-19T01:46:48.433Z,18.90
2022-08-19T01:49:17.555Z,18.91
2022-08-19T01:51:44.061Z,19.08
2022-08-19T01:54:13.740Z,19.18
2022-08-19T01:56:51.603Z,19.19
2022-08-19T01:59:21.504Z,19.26
2022-08-19T02:01:48.126Z,19.39
2022-08-19T02:04:15.480Z,19.29
2022-08-19T02:06:41.907Z,19.32
2022-08-19T02:09:09.167Z,19.53
2022-08-19T02:11:37.327Z,19.51
2022-08-19T02:14:07.095Z,19.59
2022-08-19T02:16:34.240Z,19.61
2022-08-19T02:19:03.632Z,19.53
2022-08-19T02:21:30.908Z,19.60
2022-08-19T02:23:58.152Z,19.46
2022-08-19T02:26:26.474Z,19.49
2022-08-19T02:28:53.098Z,19.41
2022-08-19T02:31:21.800Z,19.37
2022-08-19T02:33:49.162Z,19.39
2022-08-19T02:36:20.783Z,19.23
2022-08-19T02:38:54.518Z,19.14
2022-08-19T02:41:27.022Z,19.15
2022-08-19T02:44:27.591Z,19.25
2022-08-19T02:46:47.642Z,19.02
2022-08-19T02:49:17.237Z,19.03
2022-08-19T02:51:45.793Z,18.77
2022-08-19T02:54:13.457Z,18.92
2022-08-19T02:56:41.893Z,18.98
2022-08-19T02:59:11.108Z,19.01
2022-08-19T03:01:41.569Z,19.01
2022-08-19T03:04:10.871Z,18.98
2022-08-19T03:06:39.577Z,18.89
2022-08-19T03:09:06.128Z,18.84
2022-08-19T03:11:33.886Z,18.95
2022-08-19T03:14:01.003Z,18.86
2022-08-19T03:16:29.403Z,18.56
2022-08-19T03:19:01.585Z,18.83
2022-08-19T03:21:30.791Z,18.81
2022-08-19T03:23:58.956Z,18.83
2022-08-19T03:26:25.543Z,18.73
2022-08-19T03:28:58.368Z,18.68
2022-08-19T03:31:44.320Z,18.68
2022-08-19T03:34:21.077Z,18.62
2022-08-19T03:36:48.467Z,18.71
2022-08-19T03:39:15.515Z,18.68
2022-08-19T03:41:46.287Z,18.65
2022-08-19T03:44:16.802Z,18.65
2022-08-19T03:46:50.661Z,18.71
2022-08-19T03:49:18.477Z,18.66
2022-08-19T03:51:46.621Z,18.70
2022-08-19T03:54:15.231Z,18.60
2022-08-19T03:56:43.360Z,18.57
2022-08-19T03:59:12.765Z,18.51
2022-08-19T04:01:39.307Z,18.42
2022-08-19T04:04:06.671Z,18.36
2022-08-19T04:06:38.795Z,18.38
2022-08-19T04:09:09.860Z,18.10
2022-08-19T04:11:44.251Z,17.99
2022-08-19T04:14:15.045Z,17.98
2022-08-19T04:16:42.089Z,18.09
2022-08-19T04:19:08.661Z,17.98
2022-08-19T04:21:35.561Z,17.99
2022-08-19T04:24:03.794Z,17.96
2022-08-19T04:26:34.901Z,17.83
2022-08-19T04:29:04.383Z,17.81
2022-08-19T04:31:33.525Z,17.84
2022-08-19T04:34:03.036Z,17.98
2022-08-19T04:36:33.676Z,18.10
2022-08-19T04:39:04.292Z,17.90
2022-08-19T04:41:49.215Z,17.83
2022-08-19T04:44:19.021Z,17.89
2022-08-19T04:46:51.430Z,17.64
2022-08-19T04:49:22.725Z,17.54
2022-08-19T04:51:50.610Z,17.63
2022-08-19T04:54:30.934Z,17.59
2022-08-19T04:57:07.415Z,17.81
2022-08-19T04:59:34.489Z,18.06
2022-08-19T05:02:01.035Z,17.93
2022-08-19T05:04:28.998Z,17.70
2022-08-19T05:06:59.462Z,17.82
2022-08-19T05:09:28.281Z,17.86
2022-08-19T05:12:02.915Z,17.75
2022-08-19T05:14:29.887Z,17.71
2022-08-19T05:17:23.772Z,17.82
2022-08-19T05:20:01.187Z,17.72
2022-08-19T05:22:35.584Z,18.03
2022-08-19T05:25:12.935Z,17.87
2022-08-19T05:27:41.897Z,18.03
2022-08-19T05:30:09.117Z,18.34
2022-08-19T05:32:35.669Z,18.94
2022-08-19T05:35:02.323Z,19.86
2022-08-19T05:37:29.012Z,20.84
2022-08-19T05:39:55.758Z,21.79
2022-08-19T05:42:24.245Z,23.20
2022-08-19T05:44:51.340Z,23.96
2022-08-19T05:47:20.646Z,24.41
2022-08-19T05:49:47.578Z,24.86
2022-08-19T05:52:18.631Z,25.17
2022-08-19T05:54:48.582Z,25.58
2022-08-19T05:57:19.144Z,26.05
2022-08-19T05:59:47.207Z,26.42
2022-08-19T06:02:15.059Z,26.46
2022-08-19T06:04:43.642Z,26.76
2022-08-19T06:07:11.953Z,27.55
2022-08-19T06:09:38.954Z,28.17
2022-08-19T06:12:05.750Z,28.87
2022-08-19T06:14:35.553Z,29.58
2022-08-19T06:17:07.529Z,29.64
2022-08-19T06:19:34.669Z,28.99
2022-08-19T06:22:08.209Z,28.52
2022-08-19T06:24:34.719Z,28.21
2022-08-19T06:27:01.971Z,28.32
2022-08-19T06:29:30.839Z,28.19
2022-08-19T06:31:59.521Z,27.73
2022-08-19T06:34:28.791Z,27.98
2022-08-19T06:36:57.117Z,27.87
2022-08-19T06:39:26.988Z,27.64
2022-08-19T06:41:58.977Z,27.66
2022-08-19T06:44:27.886Z,27.83
2022-08-19T06:46:55.884Z,28.09
2022-08-19T06:49:23.914Z,28.23
2022-08-19T06:51:51.772Z,28.31
2022-08-19T06:54:20.237Z,28.80
2022-08-19T06:56:50.332Z,29.26
2022-08-19T06:59:20.304Z,29.64
2022-08-19T07:01:52.510Z,30.18
2022-08-19T07:04:22.102Z,30.43
2022-08-19T07:06:55.330Z,31.15
2022-08-19T07:09:22.715Z,31.16
2022-08-19T07:11:53.244Z,31.09
2022-08-19T07:14:23.570Z,31.17
2022-08-19T07:16:52.440Z,31.56
2022-08-19T07:19:20.109Z,31.94
2022-08-19T07:21:48.991Z,32.04
2022-08-19T07:24:17.002Z,31.54
2022-08-19T07:26:44.531Z,31.65
2022-08-19T07:29:12.763Z,31.91
2022-08-19T07:31:40.605Z,32.08
2022-08-19T07:34:14.524Z,31.97
2022-08-19T07:36:42.931Z,32.00
2022-08-19T07:39:16.429Z,32.06
2022-08-19T07:41:43.664Z,32.21
2022-08-19T07:44:11.244Z,31.91
2022-08-19T07:46:40.559Z,32.31
2022-08-19T07:49:08.800Z,32.27
2022-08-19T07:51:36.857Z,32.44
2022-08-19T07:54:04.542Z,31.85
2022-08-19T07:56:31.136Z,31.40
2022-08-19T07:58:57.615Z,31.32
2022-08-19T08:01:28.661Z,30.70
2022-08-19T08:04:16.035Z,30.81
2022-08-19T08:07:01.757Z,29.75
2022-08-19T08:09:32.230Z,29.68
2022-08-19T08:12:32.450Z,29.57
2022-08-19T08:14:56.907Z,29.29
2022-08-19T08:17:31.122Z,29.50
2022-08-19T08:20:14.790Z,28.59
2022-08-19T08:23:04.123Z,28.60
2022-08-19T08:25:32.379Z,28.35
2022-08-19T08:28:01.111Z,28.17
2022-08-19T08:30:31.229Z,27.97
2022-08-19T08:32:59.756Z,27.97
2022-08-19T08:35:26.757Z,28.03
2022-08-19T08:37:55.206Z,27.65
2022-08-19T08:40:28.791Z,27.96
2022-08-19T08:45:32.914Z,27.55
2022-08-19T08:48:24.330Z,27.37
2022-08-19T08:50:55.702Z,27.36
2022-08-19T08:53:29.740Z,27.67
2022-08-19T08:56:04.495Z,28.20
2022-08-19T08:59:03.224Z,28.34
2022-08-19T09:01:30.893Z,28.97
2022-08-19T09:03:57.704Z,29.17
2022-08-19T09:07:18.431Z,29.51
2022-08-19T09:10:05.535Z,28.85
2022-08-19T09:12:54.678Z,28.04
2022-08-19T09:15:29.980Z,27.89
2022-08-19T09:18:02.707Z,28.24
2022-08-19T09:20:29.702Z,28.93
2022-08-19T09:22:56.275Z,29.41
2022-08-19T09:25:24.673Z,29.62
2022-08-19T09:28:02.719Z,30.14
2022-08-19T09:30:32.815Z,30.56
2022-08-19T09:33:00.299Z,30.99
2022-08-19T09:35:29.755Z,30.28
2022-08-19T09:37:59.559Z,29.13
2022-08-19T09:40:30.260Z,28.37
2022-08-19T09:42:58.645Z,27.96
2022-08-19T09:45:25.243Z,28.00
2022-08-19T09:47:54.213Z,29.45
2022-08-19T09:50:22.553Z,30.21
2022-08-19T09:52:55.006Z,30.43
2022-08-19T09:55:23.425Z,30.20
2022-08-19T09:57:50.629Z,29.96
2022-08-19T10:00:17.596Z,29.35
2022-08-19T10:02:44.764Z,29.04
2022-08-19T10:05:30.861Z,29.30
2022-08-19T10:07:58.290Z,29.77
2022-08-19T10:10:25.104Z,29.96
2022-08-19T10:12:51.609Z,30.39
2022-08-19T10:15:29.165Z,30.78
2022-08-19T10:17:56.379Z,31.12
2022-08-19T10:20:23.608Z,31.79
2022-08-19T10:22:51.849Z,32.55
2022-08-19T10:25:19.855Z,32.51
2022-08-19T10:27:51.208Z,32.91
2022-08-19T10:30:18.241Z,33.94
2022-08-19T10:32:47.212Z,34.33
2022-08-19T10:35:16.220Z,34.69
2022-08-19T10:37:57.375Z,34.95
2022-08-19T10:40:28.789Z,34.05
2022-08-19T10:42:56.517Z,34.10
2022-08-19T10:45:26.848Z,34.47
2022-08-19T10:47:55.111Z,33.58
2022-08-19T10:50:40.796Z,32.00
2022-08-19T10:53:09.748Z,30.93
2022-08-19T10:55:55.064Z,30.34
2022-08-19T10:58:27.066Z,30.58
2022-08-19T11:00:58.977Z,30.36
2022-08-19T11:03:28.838Z,29.83
2022-08-19T11:06:03.860Z,29.34
2022-08-19T11:08:31.784Z,30.82
2022-08-19T11:11:02.171Z,31.96
2022-08-19T11:13:30.706Z,33.55
2022-08-19T11:16:09.022Z,33.81
2022-08-19T11:18:41.624Z,33.12
2022-08-19T11:21:32.693Z,31.98
2022-08-19T11:24:21.053Z,30.41
2022-08-19T11:26:51.836Z,30.09
2022-08-19T11:29:21.477Z,31.55
2022-08-19T11:31:50.651Z,32.99
2022-08-19T11:34:21.962Z,34.20
2022-08-19T11:36:50.723Z,33.18
2022-08-19T11:39:19.867Z,32.11
2022-08-19T11:41:46.837Z,31.31
2022-08-19T11:44:14.955Z,31.90
2022-08-19T11:46:46.457Z,32.91
2022-08-19T11:49:15.328Z,32.87
2022-08-19T11:51:44.070Z,32.99
2022-08-19T11:54:11.886Z,31.85
2022-08-19T11:56:38.988Z,31.59
2022-08-19T11:59:05.788Z,32.45
2022-08-19T12:01:32.826Z,33.07
2022-08-19T12:03:59.567Z,33.22
2022-08-19T12:06:32.667Z,32.66
2022-08-19T12:09:02.782Z,33.11
2022-08-19T12:11:29.345Z,33.44
2022-08-19T12:14:01.362Z,33.51
2022-08-19T12:16:31.465Z,32.11
2022-08-19T12:19:04.598Z,33.14
2022-08-19T12:21:33.308Z,33.77
2022-08-19T12:24:01.364Z,33.80
2022-08-19T12:26:28.982Z,32.92
2022-08-19T12:28:56.113Z,32.63
2022-08-19T12:31:22.752Z,32.47
2022-08-19T12:33:49.279Z,32.56
2022-08-19T12:36:16.936Z,32.62
2022-08-19T12:38:44.988Z,32.68
2022-08-19T12:41:14.282Z,32.65
2022-08-19T12:43:40.838Z,33.21
2022-08-19T12:46:07.715Z,33.99
2022-08-19T12:48:37.866Z,34.09
2022-08-19T12:51:15.795Z,33.76
2022-08-19T12:53:43.166Z,34.42
2022-08-19T12:56:12.738Z,35.80
2022-08-19T12:58:40.136Z,35.64
2022-08-19T13:01:15.075Z,35.31
2022-08-19T13:03:46.705Z,34.56
2022-08-19T13:06:13.477Z,36.04
2022-08-19T13:08:40.509Z,36.92
2022-08-19T13:11:12.745Z,37.03
2022-08-19T13:13:42.390Z,37.36
2022-08-19T13:16:12.073Z,36.52
2022-08-19T13:18:40.061Z,36.69
2022-08-19T13:21:09.320Z,35.85
2022-08-19T13:23:36.735Z,35.48
2022-08-19T13:26:06.173Z,33.52
2022-08-19T13:28:52.113Z,33.14
2022-08-19T13:31:38.622Z,32.53
2022-08-19T13:34:06.691Z,33.93
2022-08-19T13:36:34.692Z,35.65
2022-08-19T13:39:01.212Z,36.67
2022-08-19T13:41:28.351Z,37.02
2022-08-19T13:43:55.200Z,37.56
2022-08-19T13:46:21.835Z,38.50
2022-08-19T13:48:49.311Z,37.84
2022-08-19T13:51:17.319Z,37.00
2022-08-19T13:53:47.921Z,37.09
2022-08-19T13:56:17.222Z,37.16
2022-08-19T13:58:44.339Z,36.36
2022-08-19T14:01:11.512Z,36.16
2022-08-19T14:03:38.477Z,35.42
2022-08-19T14:06:05.050Z,34.64
2022-08-19T14:08:33.113Z,33.95
2022-08-19T14:11:00.449Z,33.81
2022-08-19T14:13:34.759Z,33.10
2022-08-19T14:16:01.502Z,32.59
2022-08-19T14:18:28.675Z,32.69
2022-08-19T14:20:57.737Z,32.77
2022-08-19T14:23:25.377Z,32.95
2022-08-19T14:25:51.910Z,34.29
2022-08-19T14:28:18.457Z,35.23
2022-08-19T14:30:45.508Z,36.40
2022-08-19T14:33:12.607Z,36.91
2022-08-19T14:35:39.337Z,38.04
2022-08-19T14:38:07.505Z,36.77
2022-08-19T14:40:34.308Z,33.55
2022-08-19T14:43:05.363Z,32.96
2022-08-19T14:45:34.770Z,33.60
2022-08-19T14:48:03.775Z,33.19
2022-08-19T14:50:30.464Z,32.41
2022-08-19T14:53:12.563Z,32.16
2022-08-19T14:55:42.816Z,32.22
2022-08-19T14:58:09.809Z,32.88
2022-08-19T15:00:55.239Z,34.82
2022-08-19T15:03:21.748Z,36.08
2022-08-19T15:05:48.188Z,35.53
2022-08-19T15:08:14.615Z,36.24
2022-08-19T15:10:41.158Z,35.38
2022-08-19T15:13:08.130Z,35.47
2022-08-19T15:15:35.358Z,35.47
2022-08-19T15:18:03.498Z,35.66
2022-08-19T15:20:30.455Z,36.05
2022-08-19T15:22:56.940Z,35.45
2022-08-19T15:25:23.421Z,35.77
2022-08-19T15:27:51.145Z,35.85
2022-08-19T15:30:27.975Z,35.84
2022-08-19T15:32:55.604Z,36.48
2022-08-19T15:35:23.857Z,36.12
2022-08-19T15:37:51.905Z,36.10
2022-08-19T15:40:20.159Z,36.48
2022-08-19T15:42:47.708Z,35.64
2022-08-19T15:45:14.852Z,35.61
2022-08-19T15:47:41.460Z,35.75
2022-08-19T15:50:21.333Z,34.70
2022-08-19T15:52:58.805Z,32.71
2022-08-19T15:55:33.601Z,32.51
2022-08-19T15:58:31.832Z,31.32
2022-08-19T16:01:20.584Z,31.34
2022-08-19T16:04:11.280Z,30.66
2022-08-19T16:06:47.453Z,30.45
2022-08-19T16:09:16.085Z,30.38
2022-08-19T16:11:45.934Z,29.93
2022-08-19T16:14:15.203Z,29.97
2022-08-19T16:16:41.807Z,30.38
2022-08-19T16:19:11.968Z,30.36
2022-08-19T16:21:42.002Z,30.28
2022-08-19T16:24:10.623Z,30.16
2022-08-19T16:26:37.276Z,30.08
2022-08-19T16:29:09.126Z,30.14
2022-08-19T16:31:39.246Z,30.13
2022-08-19T16:34:06.242Z,29.93
2022-08-19T16:36:33.688Z,29.70
2022-08-19T16:39:00.710Z,29.55
2022-08-19T16:41:27.900Z,29.28
2022-08-19T16:43:55.324Z,29.47
2022-08-19T16:46:23.548Z,29.48
2022-08-19T16:48:53.760Z,29.34
2022-08-19T16:51:21.422Z,29.02
2022-08-19T16:53:48.998Z,28.69
2022-08-19T16:56:15.916Z,28.88
2022-08-19T16:58:43.143Z,29.04
2022-08-19T17:01:11.303Z,28.59
2022-08-19T17:03:39.830Z,28.88
2022-08-19T17:06:20.400Z,28.55
2022-08-19T17:08:49.975Z,28.59
2022-08-19T17:11:18.885Z,28.67
2022-08-19T17:13:47.918Z,28.57
2022-08-19T17:16:15.994Z,28.47
2022-08-19T17:18:42.496Z,28.36
2022-08-19T17:21:08.934Z,28.19
2022-08-19T17:23:43.014Z,28.19
2022-08-19T17:26:18.313Z,27.92
2022-08-19T17:28:49.376Z,27.87
2022-08-19T17:31:17.782Z,27.78
2022-08-19T17:33:48.649Z,27.58
2022-08-19T17:36:21.628Z,27.43
2022-08-19T17:38:48.205Z,27.30
2022-08-19T17:41:14.765Z,27.52
2022-08-19T17:43:43.756Z,27.48
2022-08-19T17:46:17.940Z,27.40
2022-08-19T17:48:53.666Z,27.21
2022-08-19T17:51:42.122Z,27.11
2022-08-19T17:54:11.342Z,27.13
2022-08-19T17:56:38.096Z,27.03
2022-08-19T17:59:06.066Z,27.06
2022-08-19T18:01:43.902Z,26.96
2022-08-19T18:04:19.852Z,26.78
2022-08-19T18:06:53.825Z,26.60
2022-08-19T18:09:30.072Z,26.46
2022-08-19T18:12:08.250Z,26.38
2022-08-19T18:14:37.646Z,26.17
2022-08-19T18:17:09.547Z,26.18
2022-08-19T18:19:41.998Z,26.17
2022-08-19T18:22:11.700Z,26.04
2022-08-19T18:24:40.671Z,25.93
2022-08-19T18:27:07.196Z,25.85
2022-08-19T18:29:34.103Z,25.82
2022-08-19T18:32:00.583Z,25.61
2022-08-19T18:34:27.100Z,25.52
2022-08-19T18:36:54.244Z,25.45
2022-08-19T18:39:39.427Z,25.37
2022-08-19T18:42:36.498Z,25.30
2022-08-19T18:45:23.711Z,25.09
2022-08-19T18:48:27.158Z,24.88
2022-08-19T18:50:56.745Z,24.84
2022-08-19T18:53:23.454Z,24.68
2022-08-19T18:55:51.891Z,24.59
2022-08-19T18:58:18.420Z,24.39
2022-08-19T19:00:44.883Z,24.36
2022-08-19T19:03:11.629Z,24.26
2022-08-19T19:05:39.778Z,24.23
2022-08-19T19:08:06.761Z,24.17
2022-08-19T19:10:33.338Z,24.06
2022-08-19T19:13:01.288Z,23.73
2022-08-19T19:15:29.312Z,23.86
2022-08-19T19:17:56.043Z,23.79
2022-08-19T19:20:36.389Z,23.72
2022-08-19T19:23:04.173Z,23.85
2022-08-19T19:25:49.649Z,23.75
2022-08-19T19:28:17.453Z,23.63
2022-08-19T19:30:43.915Z,23.62
2022-08-19T19:33:10.393Z,23.58
2022-08-19T19:35:36.875Z,23.44
2022-08-19T19:38:03.378Z,23.43
2022-08-19T19:40:29.899Z,23.29
2022-08-19T19:42:56.449Z,23.13
2022-08-19T19:45:23.357Z,22.98
2022-08-19T19:47:50.143Z,22.89
2022-08-19T19:50:17.973Z,22.92
2022-08-19T19:52:46.665Z,22.87
2022-08-19T19:55:18.013Z,22.70
2022-08-19T19:57:46.537Z,22.67
2022-08-19T20:00:15.295Z,22.66
2022-08-19T20:02:47.789Z,22.50
2022-08-19T20:05:16.553Z,22.44
2022-08-19T20:08:01.665Z,22.36
2022-08-19T20:10:28.539Z,22.30
2022-08-19T20:12:56.708Z,22.37
2022-08-19T20:15:24.118Z,22.37
2022-08-19T20:17:51.120Z,22.36
2022-08-19T20:20:19.116Z,22.27
2022-08-19T20:22:47.493Z,22.21
2022-08-19T20:25:16.580Z,22.12
2022-08-19T20:27:43.425Z,22.06
2022-08-19T20:30:21.887Z,22.02
2022-08-19T20:32:50.525Z,21.91
2022-08-19T20:35:19.052Z,21.66
2022-08-19T20:37:45.544Z,21.62
2022-08-19T20:40:13.363Z,21.56
2022-08-19T20:42:41.455Z,21.45
2022-08-19T20:45:18.211Z,21.40
2022-08-19T20:48:02.560Z,21.28
2022-08-19T20:50:30.447Z,21.08
2022-08-19T20:52:57.305Z,21.05
2022-08-19T20:55:24.026Z,21.05
2022-08-19T20:57:51.541Z,20.97
2022-08-19T21:00:18.874Z,20.87
2022-08-19T21:02:46.871Z,20.74
2022-08-19T21:05:13.823Z,20.57
2022-08-19T21:07:40.756Z,20.59
2022-08-19T21:10:07.858Z,20.54
2022-08-19T21:12:34.357Z,20.56
2022-08-19T21:15:00.880Z,20.53
2022-08-19T21:17:27.279Z,20.44
2022-08-19T21:19:53.754Z,20.36
2022-08-19T21:22:20.252Z,20.36
2022-08-19T21:24:46.893Z,20.27
2022-08-19T21:27:13.353Z,20.10
2022-08-19T21:29:40.531Z,20.00
2022-08-19T21:32:07.911Z,19.90
2022-08-19T21:34:34.398Z,19.80
2022-08-19T21:37:00.932Z,19.80
2022-08-19T21:39:27.504Z,19.79
2022-08-19T21:41:54.395Z,19.76
2022-08-19T21:44:20.908Z,19.61
2022-08-19T21:46:50.348Z,19.39
2022-08-19T21:49:17.386Z,19.36
2022-08-19T21:51:44.135Z,19.42
2022-08-19T21:54:13.991Z,19.46
2022-08-19T21:56:41.475Z,19.46
2022-08-19T21:59:08.724Z,19.45
2022-08-19T22:01:35.731Z,19.42
2022-08-19T22:04:02.335Z,19.45
2022-08-19T22:06:28.827Z,19.44
2022-08-19T22:08:55.804Z,19.36
2022-08-19T22:11:23.915Z,19.32
2022-08-19T22:13:53.712Z,19.15
2022-08-19T22:16:20.987Z,19.19
2022-08-19T22:18:48.125Z,19.17
2022-08-19T22:21:15.060Z,19.16
2022-08-19T22:23:47.718Z,19.14
2022-08-19T22:26:16.611Z,19.20
2022-08-19T22:28:44.487Z,18.85
2022-08-19T22:31:11.973Z,18.45
2022-08-19T22:33:39.366Z,18.06
2022-08-19T22:36:07.676Z,18.01
2022-08-19T22:38:35.005Z,18.03
2022-08-19T22:41:02.474Z,18.25
2022-08-19T22:43:31.761Z,18.42
2022-08-19T22:45:59.950Z,18.55
2022-08-19T22:48:29.099Z,18.56
2022-08-19T22:51:15.318Z,18.94
2022-08-19T22:53:44.969Z,19.04
2022-08-19T22:56:15.298Z,18.94
2022-08-19T22:58:42.349Z,18.89
2022-08-19T23:01:11.482Z,18.90
2022-08-19T23:03:43.260Z,18.79
2022-08-19T23:06:10.705Z,18.87
2022-08-19T23:08:39.614Z,18.90
2022-08-19T23:11:06.417Z,19.04
2022-08-19T23:13:33.323Z,19.19
2022-08-19T23:15:59.760Z,19.25
2022-08-19T23:18:26.727Z,19.33
2022-08-19T23:20:54.603Z,19.36
2022-08-19T23:23:24.775Z,19.48
2022-08-19T23:25:53.170Z,19.51
2022-08-19T23:28:39.137Z,19.59
2022-08-19T23:31:05.862Z,19.58
2022-08-19T23:33:51.291Z,19.58
2022-08-19T23:36:19.573Z,19.48
2022-08-19T23:38:48.432Z,19.47
2022-08-19T23:41:19.608Z,19.37
2022-08-19T23:43:46.224Z,19.29
2022-08-19T23:46:27.593Z,19.32
2022-08-19T23:48:55.518Z,19.29
2022-08-19T23:51:22.194Z,19.20
2022-08-19T23:53:48.844Z,19.10
2022-08-19T23:56:15.270Z,19.02
2022-08-19T23:58:41.784Z,19.00
